TimeEDT,TemperatureF,Dew PointF,Humidity,Sea Level PressureIn,VisibilityMPH,Wind Direction,Wind SpeedMPH,Gust SpeedMPH,PrecipitationIn,Events,Conditions,WindDirDegrees,DateUTC
12:56 AM,45.0,28.0,52,30.10,10.0,WSW,11.5,19.6,N/A,,Scattered Clouds,240,2012-10-12 04:56:00
1:56 AM,46.0,28.0,50,30.08,10.0,WSW,11.5,19.6,N/A,,Clear,250,2012-10-12 05:56:00
2:56 AM,46.0,28.9,51,30.08,10.0,WSW,8.1,-,N/A,,Overcast,250,2012-10-12 06:56:00
3:29 AM,46.4,28.4,50,30.05,10.0,West,5.8,-,N/A,,Overcast,260,2012-10-12 07:29:00
3:56 AM,46.0,30.9,56,30.08,10.0,WNW,10.4,-,0.00,Rain,Light Rain,290,2012-10-12 07:56:00
4:51 AM,42.8,37.4,81,30.09,10.0,NNW,11.5,-,0.00,Rain,Light Rain,330,2012-10-12 08:51:00
4:56 AM,42.1,37.9,85,30.12,10.0,NNW,9.2,-,0.00,Rain,Light Rain,330,2012-10-12 08:56:00
5:19 AM,41.0,37.4,87,30.10,10.0,NNW,12.7,-,0.01,Rain,Light Rain,330,2012-10-12 09:19:00
5:56 AM,37.9,35.1,89,30.15,10.0,NNW,15.0,20.7,0.04,Rain,Light Rain,330,2012-10-12 09:56:00
6:56 AM,36.0,33.1,89,30.19,8.0,NNW,6.9,-,0.01,Rain,Light Rain,330,2012-10-12 10:56:00
7:17 AM,35.6,32.0,87,30.15,10.0,NW,8.1,-,0.01,Rain,Light Rain,310,2012-10-12 11:17:00
7:56 AM,36.0,33.1,89,30.21,10.0,NW,9.2,-,0.01,,Overcast,310,2012-10-12 11:56:00
8:06 AM,35.6,33.8,93,30.17,10.0,NW,11.5,-,N/A,,Overcast,310,2012-10-12 12:06:00
8:41 AM,37.4,33.8,87,30.20,10.0,NW,10.4,-,N/A,,Overcast,310,2012-10-12 12:41:00
8:56 AM,37.0,33.1,86,30.24,10.0,WNW,9.2,-,N/A,,Mostly Cloudy,300,2012-10-12 12:56:00
9:09 AM,37.4,33.8,87,30.21,10.0,NW,10.4,-,N/A,,Mostly Cloudy,310,2012-10-12 13:09:00
9:56 AM,39.9,33.1,77,30.26,10.0,NNW,10.4,23.0,N/A,,Overcast,330,2012-10-12 13:56:00
10:56 AM,41.0,30.0,65,30.29,10.0,NW,16.1,25.3,N/A,,Mostly Cloudy,320,2012-10-12 14:56:00
11:41 AM,42.8,28.4,57,30.27,10.0,NW,10.4,23.0,0.00,,Mostly Cloudy,310,2012-10-12 15:41:00
11:56 AM,41.0,30.0,65,30.32,10.0,NNW,16.1,26.5,0.00,Rain,Light Rain,340,2012-10-12 15:56:00
12:56 PM,44.1,26.1,49,30.34,10.0,NNW,13.8,24.2,0.00,,Mostly Cloudy,340,2012-10-12 16:56:00
1:56 PM,42.1,26.1,53,30.35,10.0,NNW,17.3,20.7,N/A,,Mostly Cloudy,330,2012-10-12 17:56:00
4:56 PM,43.0,19.9,40,30.38,10.0,NNW,13.8,21.9,N/A,,Scattered Clouds,330,2012-10-12 20:56:00
5:56 PM,39.9,19.0,43,30.40,10.0,NNW,10.4,-,N/A,,Clear,340,2012-10-12 21:56:00
7:56 PM,35.1,19.0,52,30.45,10.0,Calm,Calm,-,N/A,,Clear,0,2012-10-12 23:56:00
9:56 PM,32.0,19.0,59,30.47,10.0,Calm,Calm,-,N/A,,Clear,0,2012-10-13 01:56:00
10:56 PM,30.0,19.0,64,30.48,10.0,Calm,Calm,-,N/A,,Clear,0,2012-10-13 02:56:00